sensor_id;sensor_type;location;lat;lon;timestamp;temperature;humidity
947;DHT22;460;48.734;9.152;2022-12-18T00:02:18;-8.20;95.20
947;DHT22;460;48.734;9.152;2022-12-18T00:04:45;-8.20;95.40
947;DHT22;460;48.734;9.152;2022-12-18T00:07:11;-8.20;95.40
947;DHT22;460;48.734;9.152;2022-12-18T00:09:40;-8.10;95.40
947;DHT22;460;48.734;9.152;2022-12-18T00:12:07;-8.10;95.50
947;DHT22;460;48.734;9.152;2022-12-18T00:14:33;-8.00;95.60
947;DHT22;460;48.734;9.152;2022-12-18T00:17:00;-7.90;99.80
947;DHT22;460;48.734;9.152;2022-12-18T00:19:28;-8.00;95.70
947;DHT22;460;48.734;9.152;2022-12-18T00:21:54;-8.00;96.20
947;DHT22;460;48.734;9.152;2022-12-18T00:24:22;-7.90;96.30
947;DHT22;460;48.734;9.152;2022-12-18T00:26:50;-7.90;96.40
947;DHT22;460;48.734;9.152;2022-12-18T00:29:16;-8.00;96.10
947;DHT22;460;48.734;9.152;2022-12-18T00:31:43;-8.00;96.00
947;DHT22;460;48.734;9.152;2022-12-18T00:34:12;-8.00;95.90
947;DHT22;460;48.734;9.152;2022-12-18T00:36:39;-8.00;95.60
947;DHT22;460;48.734;9.152;2022-12-18T00:39:06;-8.10;95.60
947;DHT22;460;48.734;9.152;2022-12-18T00:41:33;-8.20;95.40
947;DHT22;460;48.734;9.152;2022-12-18T00:44:19;-8.10;95.50
947;DHT22;460;48.734;9.152;2022-12-18T00:46:47;-8.10;95.20
947;DHT22;460;48.734;9.152;2022-12-18T00:49:14;-8.10;95.20
947;DHT22;460;48.734;9.152;2022-12-18T00:51:42;-8.10;95.50
947;DHT22;460;48.734;9.152;2022-12-18T00:54:09;-8.10;95.60
947;DHT22;460;48.734;9.152;2022-12-18T00:56:36;-8.10;95.60
947;DHT22;460;48.734;9.152;2022-12-18T00:59:04;-8.10;95.50
947;DHT22;460;48.734;9.152;2022-12-18T01:01:32;-8.00;95.70
947;DHT22;460;48.734;9.152;2022-12-18T01:04:00;-8.10;95.60
947;DHT22;460;48.734;9.152;2022-12-18T01:06:26;-8.00;96.00
947;DHT22;460;48.734;9.152;2022-12-18T01:08:53;-7.90;96.50
947;DHT22;460;48.734;9.152;2022-12-18T01:11:22;-7.90;96.70
947;DHT22;460;48.734;9.152;2022-12-18T01:13:49;-7.90;96.90
947;DHT22;460;48.734;9.152;2022-12-18T01:16:17;-7.90;96.80
947;DHT22;460;48.734;9.152;2022-12-18T01:18:45;-7.80;96.70
947;DHT22;460;48.734;9.152;2022-12-18T01:21:14;-7.80;96.70
947;DHT22;460;48.734;9.152;2022-12-18T01:23:41;-7.80;96.80
947;DHT22;460;48.734;9.152;2022-12-18T01:26:10;-7.80;96.90
947;DHT22;460;48.734;9.152;2022-12-18T01:28:38;-7.90;96.70
947;DHT22;460;48.734;9.152;2022-12-18T01:31:12;-8.00;96.50
947;DHT22;460;48.734;9.152;2022-12-18T01:33:40;-8.00;96.60
947;DHT22;460;48.734;9.152;2022-12-18T01:36:13;-8.00;96.60
947;DHT22;460;48.734;9.152;2022-12-18T01:38:40;-8.10;99.90
947;DHT22;460;48.734;9.152;2022-12-18T01:41:08;-8.10;96.30
947;DHT22;460;48.734;9.152;2022-12-18T01:43:47;-8.00;96.40
947;DHT22;460;48.734;9.152;2022-12-18T01:46:15;-8.10;96.10
947;DHT22;460;48.734;9.152;2022-12-18T01:48:44;-8.10;96.00
947;DHT22;460;48.734;9.152;2022-12-18T01:51:12;-8.20;95.80
947;DHT22;460;48.734;9.152;2022-12-18T01:53:42;-8.20;95.80
947;DHT22;460;48.734;9.152;2022-12-18T01:56:13;-8.10;95.70
947;DHT22;460;48.734;9.152;2022-12-18T01:58:46;-8.10;95.60
947;DHT22;460;48.734;9.152;2022-12-18T02:01:15;-8.00;99.10
947;DHT22;460;48.734;9.152;2022-12-18T02:03:42;-8.20;95.40
947;DHT22;460;48.734;9.152;2022-12-18T02:06:15;-8.20;95.30
947;DHT22;460;48.734;9.152;2022-12-18T02:08:51;-8.10;95.50
947;DHT22;460;48.734;9.152;2022-12-18T02:11:32;-8.10;95.60
947;DHT22;460;48.734;9.152;2022-12-18T02:14:07;-7.90;95.90
947;DHT22;460;48.734;9.152;2022-12-18T02:16:41;-8.00;96.00
947;DHT22;460;48.734;9.152;2022-12-18T02:19:25;-7.90;96.10
947;DHT22;460;48.734;9.152;2022-12-18T02:22:11;-7.90;96.10
947;DHT22;460;48.734;9.152;2022-12-18T02:24:53;-8.00;95.90
947;DHT22;460;48.734;9.152;2022-12-18T02:27:28;-8.00;96.10
947;DHT22;460;48.734;9.152;2022-12-18T02:29:58;-7.90;96.10
947;DHT22;460;48.734;9.152;2022-12-18T02:32:34;-7.90;99.50
947;DHT22;460;48.734;9.152;2022-12-18T02:35:05;-8.00;96.20
947;DHT22;460;48.734;9.152;2022-12-18T02:37:34;-8.00;96.10
947;DHT22;460;48.734;9.152;2022-12-18T02:40:05;-8.00;96.10
947;DHT22;460;48.734;9.152;2022-12-18T02:42:33;-8.00;96.20
947;DHT22;460;48.734;9.152;2022-12-18T02:45:02;-8.00;96.10
947;DHT22;460;48.734;9.152;2022-12-18T02:47:38;-8.00;96.20
947;DHT22;460;48.734;9.152;2022-12-18T02:50:13;-8.00;96.20
947;DHT22;460;48.734;9.152;2022-12-18T02:52:49;-8.10;96.10
947;DHT22;460;48.734;9.152;2022-12-18T02:55:28;-8.10;96.10
947;DHT22;460;48.734;9.152;2022-12-18T02:58:05;-8.20;96.00
947;DHT22;460;48.734;9.152;2022-12-18T03:00:37;-8.10;96.20
947;DHT22;460;48.734;9.152;2022-12-18T03:03:07;-8.10;96.10
947;DHT22;460;48.734;9.152;2022-12-18T03:05:39;-8.10;96.20
947;DHT22;460;48.734;9.152;2022-12-18T03:08:10;-7.90;99.90
947;DHT22;460;48.734;9.152;2022-12-18T03:10:42;-8.00;96.20
947;DHT22;460;48.734;9.152;2022-12-18T03:13:16;-8.00;96.10
947;DHT22;460;48.734;9.152;2022-12-18T03:15:48;-7.90;96.30
947;DHT22;460;48.734;9.152;2022-12-18T03:18:21;-7.90;96.30
947;DHT22;460;48.734;9.152;2022-12-18T03:20:52;-7.90;96.30
947;DHT22;460;48.734;9.152;2022-12-18T03:23:24;-7.90;96.30
947;DHT22;460;48.734;9.152;2022-12-18T03:25:56;-7.90;96.20
947;DHT22;460;48.734;9.152;2022-12-18T03:28:28;-8.00;96.00
947;DHT22;460;48.734;9.152;2022-12-18T03:30:58;-8.00;96.00
947;DHT22;460;48.734;9.152;2022-12-18T03:33:30;-8.00;96.00
947;DHT22;460;48.734;9.152;2022-12-18T03:36:00;-7.90;96.20
947;DHT22;460;48.734;9.152;2022-12-18T03:38:27;-7.90;96.00
947;DHT22;460;48.734;9.152;2022-12-18T03:40:59;-7.90;96.00
947;DHT22;460;48.734;9.152;2022-12-18T03:43:41;-7.90;96.00
947;DHT22;460;48.734;9.152;2022-12-18T03:46:16;-7.90;96.00
947;DHT22;460;48.734;9.152;2022-12-18T03:48:51;-7.90;96.00
947;DHT22;460;48.734;9.152;2022-12-18T03:51:26;-7.80;95.90
947;DHT22;460;48.734;9.152;2022-12-18T03:53:57;-7.80;95.70
947;DHT22;460;48.734;9.152;2022-12-18T03:56:28;-7.90;95.60
947;DHT22;460;48.734;9.152;2022-12-18T03:58:59;-8.00;95.50
947;DHT22;460;48.734;9.152;2022-12-18T04:01:31;-8.20;95.20
947;DHT22;460;48.734;9.152;2022-12-18T04:04:00;-8.00;95.30
947;DHT22;460;48.734;9.152;2022-12-18T04:06:28;-8.10;95.20
947;DHT22;460;48.734;9.152;2022-12-18T04:08:56;-8.00;95.30
947;DHT22;460;48.734;9.152;2022-12-18T04:11:24;-8.10;95.30
947;DHT22;460;48.734;9.152;2022-12-18T04:13:52;-8.10;95.40
947;DHT22;460;48.734;9.152;2022-12-18T04:16:23;-8.00;95.20
947;DHT22;460;48.734;9.152;2022-12-18T04:18:49;-8.10;95.00
947;DHT22;460;48.734;9.152;2022-12-18T04:21:16;-8.20;94.80
947;DHT22;460;48.734;9.152;2022-12-18T04:23:43;-8.20;94.80
947;DHT22;460;48.734;9.152;2022-12-18T04:26:10;-8.20;94.70
947;DHT22;460;48.734;9.152;2022-12-18T04:28:37;-8.20;94.60
947;DHT22;460;48.734;9.152;2022-12-18T04:31:04;-8.30;94.40
947;DHT22;460;48.734;9.152;2022-12-18T04:33:33;-8.40;94.10
947;DHT22;460;48.734;9.152;2022-12-18T04:35:59;-8.40;94.30
947;DHT22;460;48.734;9.152;2022-12-18T04:38:26;-8.50;94.40
947;DHT22;460;48.734;9.152;2022-12-18T04:40:53;-8.50;94.40
947;DHT22;460;48.734;9.152;2022-12-18T04:43:20;-8.50;94.20
947;DHT22;460;48.734;9.152;2022-12-18T04:45:47;-8.50;94.20
947;DHT22;460;48.734;9.152;2022-12-18T04:48:13;-8.50;97.00
947;DHT22;460;48.734;9.152;2022-12-18T04:50:42;-8.60;94.00
947;DHT22;460;48.734;9.152;2022-12-18T04:53:08;-8.60;94.10
947;DHT22;460;48.734;9.152;2022-12-18T04:55:35;-8.60;94.10
947;DHT22;460;48.734;9.152;2022-12-18T04:58:02;-8.60;93.80
947;DHT22;460;48.734;9.152;2022-12-18T05:00:29;-8.60;93.90
947;DHT22;460;48.734;9.152;2022-12-18T05:02:55;-8.60;93.90
947;DHT22;460;48.734;9.152;2022-12-18T05:05:23;-8.70;93.80
947;DHT22;460;48.734;9.152;2022-12-18T05:07:51;-9.30;96.30
947;DHT22;460;48.734;9.152;2022-12-18T05:10:18;-8.80;93.70
947;DHT22;460;48.734;9.152;2022-12-18T05:12:45;-8.70;93.90
947;DHT22;460;48.734;9.152;2022-12-18T05:15:28;-8.70;93.60
947;DHT22;460;48.734;9.152;2022-12-18T05:17:55;-8.90;93.60
947;DHT22;460;48.734;9.152;2022-12-18T05:20:23;-8.80;93.70
947;DHT22;460;48.734;9.152;2022-12-18T05:22:51;-8.90;93.70
947;DHT22;460;48.734;9.152;2022-12-18T05:25:18;-9.00;93.80
947;DHT22;460;48.734;9.152;2022-12-18T05:27:45;-9.10;93.80
947;DHT22;460;48.734;9.152;2022-12-18T05:30:12;-9.10;94.00
947;DHT22;460;48.734;9.152;2022-12-18T05:32:39;-9.10;93.90
947;DHT22;460;48.734;9.152;2022-12-18T05:35:08;-9.00;94.10
947;DHT22;460;48.734;9.152;2022-12-18T05:37:35;-9.00;94.10
947;DHT22;460;48.734;9.152;2022-12-18T05:40:03;-9.20;93.80
947;DHT22;460;48.734;9.152;2022-12-18T05:42:30;-9.10;94.00
947;DHT22;460;48.734;9.152;2022-12-18T05:44:57;-9.10;94.10
947;DHT22;460;48.734;9.152;2022-12-18T05:47:24;-9.00;94.10
947;DHT22;460;48.734;9.152;2022-12-18T05:49:51;-9.10;93.80
947;DHT22;460;48.734;9.152;2022-12-18T05:52:17;-9.00;93.80
947;DHT22;460;48.734;9.152;2022-12-18T05:54:44;-9.00;93.70
947;DHT22;460;48.734;9.152;2022-12-18T05:57:12;-9.00;93.60
947;DHT22;460;48.734;9.152;2022-12-18T05:59:39;-9.00;93.60
947;DHT22;460;48.734;9.152;2022-12-18T06:02:06;-9.00;93.70
947;DHT22;460;48.734;9.152;2022-12-18T06:04:33;-9.10;93.60
947;DHT22;460;48.734;9.152;2022-12-18T06:07:00;-9.00;93.70
947;DHT22;460;48.734;9.152;2022-12-18T06:09:26;-9.10;93.60
947;DHT22;460;48.734;9.152;2022-12-18T06:11:53;-9.10;93.70
947;DHT22;460;48.734;9.152;2022-12-18T06:14:21;-9.10;93.30
947;DHT22;460;48.734;9.152;2022-12-18T06:16:50;-9.30;93.10
947;DHT22;460;48.734;9.152;2022-12-18T06:19:17;-9.30;93.50
947;DHT22;460;48.734;9.152;2022-12-18T06:21:44;-9.40;93.70
947;DHT22;460;48.734;9.152;2022-12-18T06:24:11;-9.40;93.80
947;DHT22;460;48.734;9.152;2022-12-18T06:26:38;-9.40;93.80
947;DHT22;460;48.734;9.152;2022-12-18T06:29:05;-9.30;94.10
947;DHT22;460;48.734;9.152;2022-12-18T06:31:33;-9.40;93.70
947;DHT22;460;48.734;9.152;2022-12-18T06:34:02;-9.50;93.70
947;DHT22;460;48.734;9.152;2022-12-18T06:36:29;-9.40;93.80
947;DHT22;460;48.734;9.152;2022-12-18T06:38:57;-9.50;93.70
947;DHT22;460;48.734;9.152;2022-12-18T06:41:23;-9.40;93.80
947;DHT22;460;48.734;9.152;2022-12-18T06:43:50;-9.30;93.70
947;DHT22;460;48.734;9.152;2022-12-18T06:46:17;-9.30;93.80
947;DHT22;460;48.734;9.152;2022-12-18T06:48:48;-9.30;93.40
947;DHT22;460;48.734;9.152;2022-12-18T06:51:17;-9.30;93.50
947;DHT22;460;48.734;9.152;2022-12-18T06:53:44;-9.30;93.50
947;DHT22;460;48.734;9.152;2022-12-18T06:56:10;-9.30;93.70
947;DHT22;460;48.734;9.152;2022-12-18T06:58:37;-9.30;93.70
947;DHT22;460;48.734;9.152;2022-12-18T07:01:06;-9.40;93.50
947;DHT22;460;48.734;9.152;2022-12-18T07:03:34;-9.40;93.40
947;DHT22;460;48.734;9.152;2022-12-18T07:06:02;-9.50;93.40
947;DHT22;460;48.734;9.152;2022-12-18T07:08:29;-9.50;93.40
947;DHT22;460;48.734;9.152;2022-12-18T07:10:56;-9.40;93.30
947;DHT22;460;48.734;9.152;2022-12-18T07:13:23;-9.30;93.40
947;DHT22;460;48.734;9.152;2022-12-18T07:15:50;-9.40;93.30
947;DHT22;460;48.734;9.152;2022-12-18T07:18:17;-9.40;93.30
947;DHT22;460;48.734;9.152;2022-12-18T07:20:44;-9.40;93.30
947;DHT22;460;48.734;9.152;2022-12-18T07:23:12;-9.40;93.30
947;DHT22;460;48.734;9.152;2022-12-18T07:25:39;-9.40;93.50
947;DHT22;460;48.734;9.152;2022-12-18T07:28:05;-9.40;93.80
947;DHT22;460;48.734;9.152;2022-12-18T07:30:32;-9.30;94.00
947;DHT22;460;48.734;9.152;2022-12-18T07:32:59;-9.30;94.10
947;DHT22;460;48.734;9.152;2022-12-18T07:35:26;-9.10;94.00
947;DHT22;460;48.734;9.152;2022-12-18T07:37:53;-9.20;93.90
947;DHT22;460;48.734;9.152;2022-12-18T07:40:21;-9.10;94.00
947;DHT22;460;48.734;9.152;2022-12-18T07:42:47;-9.10;94.20
947;DHT22;460;48.734;9.152;2022-12-18T07:45:14;-9.10;94.20
947;DHT22;460;48.734;9.152;2022-12-18T07:47:41;-9.00;94.40
947;DHT22;460;48.734;9.152;2022-12-18T07:50:08;-9.00;94.40
947;DHT22;460;48.734;9.152;2022-12-18T07:52:35;-9.00;94.20
947;DHT22;460;48.734;9.152;2022-12-18T07:55:02;-9.10;94.00
947;DHT22;460;48.734;9.152;2022-12-18T07:57:30;-9.70;96.20
947;DHT22;460;48.734;9.152;2022-12-18T07:59:57;-9.10;93.80
947;DHT22;460;48.734;9.152;2022-12-18T08:02:23;-9.00;94.00
947;DHT22;460;48.734;9.152;2022-12-18T08:04:50;-9.00;94.10
947;DHT22;460;48.734;9.152;2022-12-18T08:07:17;-8.90;94.20
947;DHT22;460;48.734;9.152;2022-12-18T08:09:44;-8.80;94.70
947;DHT22;460;48.734;9.152;2022-12-18T08:12:10;-8.70;94.80
947;DHT22;460;48.734;9.152;2022-12-18T08:14:39;-8.70;94.70
947;DHT22;460;48.734;9.152;2022-12-18T08:17:05;-8.60;94.80
947;DHT22;460;48.734;9.152;2022-12-18T08:19:32;-8.50;94.90
947;DHT22;460;48.734;9.152;2022-12-18T08:21:59;-8.40;94.90
947;DHT22;460;48.734;9.152;2022-12-18T08:24:26;-8.30;95.00
947;DHT22;460;48.734;9.152;2022-12-18T08:26:52;-8.30;95.40
947;DHT22;460;48.734;9.152;2022-12-18T08:29:19;-8.10;95.40
947;DHT22;460;48.734;9.152;2022-12-18T08:31:48;-8.00;95.60
947;DHT22;460;48.734;9.152;2022-12-18T08:34:14;-7.80;96.00
947;DHT22;460;48.734;9.152;2022-12-18T08:36:41;-7.80;96.10
947;DHT22;460;48.734;9.152;2022-12-18T08:39:08;-7.70;96.10
947;DHT22;460;48.734;9.152;2022-12-18T08:41:35;-7.60;96.20
947;DHT22;460;48.734;9.152;2022-12-18T08:44:01;-7.50;96.30
947;DHT22;460;48.734;9.152;2022-12-18T08:46:45;-7.40;96.40
947;DHT22;460;48.734;9.152;2022-12-18T08:49:14;-7.30;96.40
947;DHT22;460;48.734;9.152;2022-12-18T08:51:40;-7.30;96.50
947;DHT22;460;48.734;9.152;2022-12-18T08:54:09;-7.10;96.70
947;DHT22;460;48.734;9.152;2022-12-18T08:56:37;-7.00;96.80
947;DHT22;460;48.734;9.152;2022-12-18T08:59:03;-6.90;96.90
947;DHT22;460;48.734;9.152;2022-12-18T09:01:30;-6.80;97.10
947;DHT22;460;48.734;9.152;2022-12-18T09:03:57;-6.60;97.30
947;DHT22;460;48.734;9.152;2022-12-18T09:06:25;-6.50;97.30
947;DHT22;460;48.734;9.152;2022-12-18T09:08:52;-6.50;97.40
947;DHT22;460;48.734;9.152;2022-12-18T09:11:21;-6.40;97.40
947;DHT22;460;48.734;9.152;2022-12-18T09:13:49;-6.30;97.60
947;DHT22;460;48.734;9.152;2022-12-18T09:16:16;-6.20;97.80
947;DHT22;460;48.734;9.152;2022-12-18T09:18:43;-6.20;97.90
947;DHT22;460;48.734;9.152;2022-12-18T09:21:12;-6.00;98.10
947;DHT22;460;48.734;9.152;2022-12-18T09:23:40;-6.00;98.10
947;DHT22;460;48.734;9.152;2022-12-18T09:26:07;-6.00;98.00
947;DHT22;460;48.734;9.152;2022-12-18T09:28:34;-5.90;98.10
947;DHT22;460;48.734;9.152;2022-12-18T09:31:05;-5.70;99.90
947;DHT22;460;48.734;9.152;2022-12-18T09:33:33;-5.80;98.30
947;DHT22;460;48.734;9.152;2022-12-18T09:36:01;-5.70;98.40
947;DHT22;460;48.734;9.152;2022-12-18T09:38:28;-5.60;98.40
947;DHT22;460;48.734;9.152;2022-12-18T09:41:00;-5.50;98.50
947;DHT22;460;48.734;9.152;2022-12-18T09:43:35;-5.50;98.50
947;DHT22;460;48.734;9.152;2022-12-18T09:46:07;-5.40;98.70
947;DHT22;460;48.734;9.152;2022-12-18T09:48:38;-5.40;98.70
947;DHT22;460;48.734;9.152;2022-12-18T09:51:11;-5.30;98.70
947;DHT22;460;48.734;9.152;2022-12-18T09:53:41;-5.30;98.90
947;DHT22;460;48.734;9.152;2022-12-18T09:56:16;-5.10;98.90
947;DHT22;460;48.734;9.152;2022-12-18T09:58:47;-5.10;98.90
947;DHT22;460;48.734;9.152;2022-12-18T10:01:20;-5.10;98.70
947;DHT22;460;48.734;9.152;2022-12-18T10:03:48;-5.10;98.80
947;DHT22;460;48.734;9.152;2022-12-18T10:06:19;-5.00;98.90
947;DHT22;460;48.734;9.152;2022-12-18T10:08:53;-5.00;98.90
947;DHT22;460;48.734;9.152;2022-12-18T10:11:31;-4.90;99.00
947;DHT22;460;48.734;9.152;2022-12-18T10:14:05;-4.90;98.90
947;DHT22;460;48.734;9.152;2022-12-18T10:16:41;-5.00;98.90
947;DHT22;460;48.734;9.152;2022-12-18T10:19:36;-4.80;99.20
947;DHT22;460;48.734;9.152;2022-12-18T10:22:12;-4.80;99.10
947;DHT22;460;48.734;9.152;2022-12-18T10:24:45;-4.70;99.00
947;DHT22;460;48.734;9.152;2022-12-18T10:27:18;-4.70;98.90
947;DHT22;460;48.734;9.152;2022-12-18T10:29:48;-4.70;99.00
947;DHT22;460;48.734;9.152;2022-12-18T10:32:17;-4.70;99.00
947;DHT22;460;48.734;9.152;2022-12-18T10:34:45;-4.60;99.20
947;DHT22;460;48.734;9.152;2022-12-18T10:37:16;-4.50;99.20
947;DHT22;460;48.734;9.152;2022-12-18T10:39:44;-4.40;99.30
947;DHT22;460;48.734;9.152;2022-12-18T10:42:18;-4.40;99.30
947;DHT22;460;48.734;9.152;2022-12-18T10:44:45;-4.30;99.40
947;DHT22;460;48.734;9.152;2022-12-18T10:47:15;-4.20;99.40
947;DHT22;460;48.734;9.152;2022-12-18T10:49:49;-4.10;99.50
947;DHT22;460;48.734;9.152;2022-12-18T10:52:18;-4.00;99.50
947;DHT22;460;48.734;9.152;2022-12-18T10:54:50;-4.00;99.40
947;DHT22;460;48.734;9.152;2022-12-18T10:57:30;-3.90;99.50
947;DHT22;460;48.734;9.152;2022-12-18T11:03:30;-3.80;99.60
947;DHT22;460;48.734;9.152;2022-12-18T11:06:09;-3.70;99.60
947;DHT22;460;48.734;9.152;2022-12-18T11:08:36;-3.70;99.40
947;DHT22;460;48.734;9.152;2022-12-18T11:11:07;-3.60;99.40
947;DHT22;460;48.734;9.152;2022-12-18T11:13:38;-3.60;99.20
947;DHT22;460;48.734;9.152;2022-12-18T11:16:05;-3.50;99.30
947;DHT22;460;48.734;9.152;2022-12-18T11:18:34;-3.40;99.20
947;DHT22;460;48.734;9.152;2022-12-18T11:21:06;-3.40;98.90
947;DHT22;460;48.734;9.152;2022-12-18T11:23:34;-3.30;99.90
947;DHT22;460;48.734;9.152;2022-12-18T11:26:03;-3.30;98.90
947;DHT22;460;48.734;9.152;2022-12-18T11:28:40;-3.20;99.00
947;DHT22;460;48.734;9.152;2022-12-18T11:31:23;-3.10;99.00
947;DHT22;460;48.734;9.152;2022-12-18T11:33:58;-3.10;98.80
947;DHT22;460;48.734;9.152;2022-12-18T11:36:30;-3.10;98.80
947;DHT22;460;48.734;9.152;2022-12-18T11:39:02;-3.10;98.80
947;DHT22;460;48.734;9.152;2022-12-18T11:41:34;-3.10;98.70
947;DHT22;460;48.734;9.152;2022-12-18T11:44:26;-3.00;98.70
947;DHT22;460;48.734;9.152;2022-12-18T11:46:56;-2.90;98.60
947;DHT22;460;48.734;9.152;2022-12-18T11:49:29;-2.90;98.10
947;DHT22;460;48.734;9.152;2022-12-18T11:52:04;-2.90;98.20
947;DHT22;460;48.734;9.152;2022-12-18T11:54:36;-2.80;98.00
947;DHT22;460;48.734;9.152;2022-12-18T11:57:09;-2.90;97.90
947;DHT22;460;48.734;9.152;2022-12-18T11:59:51;-2.80;97.90
947;DHT22;460;48.734;9.152;2022-12-18T12:02:37;-2.70;97.60
947;DHT22;460;48.734;9.152;2022-12-18T12:05:25;-2.80;97.60
947;DHT22;460;48.734;9.152;2022-12-18T12:08:00;-2.90;97.60
947;DHT22;460;48.734;9.152;2022-12-18T12:10:39;-2.90;97.60
947;DHT22;460;48.734;9.152;2022-12-18T12:13:20;-2.80;97.80
947;DHT22;460;48.734;9.152;2022-12-18T12:16:01;-2.80;97.60
947;DHT22;460;48.734;9.152;2022-12-18T12:18:37;-2.70;97.60
947;DHT22;460;48.734;9.152;2022-12-18T12:21:12;-2.70;97.40
947;DHT22;460;48.734;9.152;2022-12-18T12:23:49;-2.60;97.40
947;DHT22;460;48.734;9.152;2022-12-18T12:26:25;-2.60;97.40
947;DHT22;460;48.734;9.152;2022-12-18T12:29:01;-2.60;97.10
947;DHT22;460;48.734;9.152;2022-12-18T12:31:46;-2.50;96.70
947;DHT22;460;48.734;9.152;2022-12-18T12:34:18;-2.50;96.60
947;DHT22;460;48.734;9.152;2022-12-18T12:36:55;-2.60;96.60
947;DHT22;460;48.734;9.152;2022-12-18T12:39:27;-2.70;96.70
947;DHT22;460;48.734;9.152;2022-12-18T12:41:55;-2.70;97.30
947;DHT22;460;48.734;9.152;2022-12-18T12:44:43;-2.60;97.10
947;DHT22;460;48.734;9.152;2022-12-18T12:47:16;-2.70;97.00
947;DHT22;460;48.734;9.152;2022-12-18T12:49:44;-2.70;97.10
947;DHT22;460;48.734;9.152;2022-12-18T12:52:16;-2.60;97.20
947;DHT22;460;48.734;9.152;2022-12-18T12:54:44;-2.60;97.10
947;DHT22;460;48.734;9.152;2022-12-18T12:57:15;-2.50;97.10
947;DHT22;460;48.734;9.152;2022-12-18T12:59:47;-2.50;97.10
947;DHT22;460;48.734;9.152;2022-12-18T13:02:22;-2.60;97.10
947;DHT22;460;48.734;9.152;2022-12-18T13:04:56;-2.50;97.30
947;DHT22;460;48.734;9.152;2022-12-18T13:07:26;-2.50;97.30
947;DHT22;460;48.734;9.152;2022-12-18T13:10:14;-2.30;97.10
947;DHT22;460;48.734;9.152;2022-12-18T13:12:53;-2.40;96.80
947;DHT22;460;48.734;9.152;2022-12-18T13:15:29;-2.30;96.80
947;DHT22;460;48.734;9.152;2022-12-18T13:18:15;-2.30;96.70
947;DHT22;460;48.734;9.152;2022-12-18T13:20:45;-2.40;96.80
947;DHT22;460;48.734;9.152;2022-12-18T13:23:32;-2.40;97.00
947;DHT22;460;48.734;9.152;2022-12-18T13:26:30;-2.40;97.00
947;DHT22;460;48.734;9.152;2022-12-18T13:28:59;-2.40;97.20
947;DHT22;460;48.734;9.152;2022-12-18T13:31:57;-2.40;97.20
947;DHT22;460;48.734;9.152;2022-12-18T13:34:27;-2.30;97.20
947;DHT22;460;48.734;9.152;2022-12-18T13:36:57;-2.20;97.30
947;DHT22;460;48.734;9.152;2022-12-18T13:39:45;-2.20;97.30
947;DHT22;460;48.734;9.152;2022-12-18T13:42:39;-2.20;97.30
947;DHT22;460;48.734;9.152;2022-12-18T13:45:45;-2.20;97.10
947;DHT22;460;48.734;9.152;2022-12-18T13:48:31;-2.10;97.00
947;DHT22;460;48.734;9.152;2022-12-18T13:51:01;-2.00;97.00
947;DHT22;460;48.734;9.152;2022-12-18T13:53:34;-2.00;96.90
947;DHT22;460;48.734;9.152;2022-12-18T13:56:04;-1.90;96.80
947;DHT22;460;48.734;9.152;2022-12-18T13:58:31;-1.90;97.00
947;DHT22;460;48.734;9.152;2022-12-18T14:00:58;-1.90;96.50
947;DHT22;460;48.734;9.152;2022-12-18T14:03:29;-2.00;96.50
947;DHT22;460;48.734;9.152;2022-12-18T14:06:00;-1.80;96.50
947;DHT22;460;48.734;9.152;2022-12-18T14:08:33;-1.90;96.40
947;DHT22;460;48.734;9.152;2022-12-18T14:11:02;-2.00;96.40
947;DHT22;460;48.734;9.152;2022-12-18T14:13:32;-1.90;97.00
947;DHT22;460;48.734;9.152;2022-12-18T14:16:01;-2.00;96.70
947;DHT22;460;48.734;9.152;2022-12-18T14:18:36;-1.90;96.50
947;DHT22;460;48.734;9.152;2022-12-18T14:21:05;-1.90;96.50
947;DHT22;460;48.734;9.152;2022-12-18T14:23:35;-1.90;96.50
947;DHT22;460;48.734;9.152;2022-12-18T14:26:22;-2.00;96.50
947;DHT22;460;48.734;9.152;2022-12-18T14:28:50;-2.10;96.80
947;DHT22;460;48.734;9.152;2022-12-18T14:31:20;-2.20;97.00
947;DHT22;460;48.734;9.152;2022-12-18T14:33:48;-2.00;97.00
947;DHT22;460;48.734;9.152;2022-12-18T14:36:17;-2.00;96.50
947;DHT22;460;48.734;9.152;2022-12-18T14:38:48;-2.10;96.40
947;DHT22;460;48.734;9.152;2022-12-18T14:41:18;-2.10;96.50
947;DHT22;460;48.734;9.152;2022-12-18T14:43:47;-2.20;96.70
947;DHT22;460;48.734;9.152;2022-12-18T14:46:33;-2.20;96.70
947;DHT22;460;48.734;9.152;2022-12-18T14:49:03;-2.20;96.70
947;DHT22;460;48.734;9.152;2022-12-18T14:51:32;-2.30;96.90
947;DHT22;460;48.734;9.152;2022-12-18T14:54:00;-2.40;97.00
947;DHT22;460;48.734;9.152;2022-12-18T14:56:30;-2.40;97.20
947;DHT22;460;48.734;9.152;2022-12-18T14:58:59;-2.30;96.90
947;DHT22;460;48.734;9.152;2022-12-18T15:01:29;-2.40;97.00
947;DHT22;460;48.734;9.152;2022-12-18T15:03:58;-2.50;97.00
947;DHT22;460;48.734;9.152;2022-12-18T15:06:32;-2.50;97.10
947;DHT22;460;48.734;9.152;2022-12-18T15:09:01;-2.50;97.00
947;DHT22;460;48.734;9.152;2022-12-18T15:11:44;-2.40;96.90
947;DHT22;460;48.734;9.152;2022-12-18T15:14:32;-2.50;96.90
947;DHT22;460;48.734;9.152;2022-12-18T15:17:02;-2.70;97.00
947;DHT22;460;48.734;9.152;2022-12-18T15:19:35;-2.70;97.30
947;DHT22;460;48.734;9.152;2022-12-18T15:22:03;-2.80;97.30
947;DHT22;460;48.734;9.152;2022-12-18T15:24:31;-2.90;97.50
947;DHT22;460;48.734;9.152;2022-12-18T15:27:01;-2.90;97.70
947;DHT22;460;48.734;9.152;2022-12-18T15:29:28;-3.00;97.80
947;DHT22;460;48.734;9.152;2022-12-18T15:31:59;-3.00;97.90
947;DHT22;460;48.734;9.152;2022-12-18T15:34:27;-3.00;97.90
947;DHT22;460;48.734;9.152;2022-12-18T15:36:54;-3.00;98.10
947;DHT22;460;48.734;9.152;2022-12-18T15:39:21;-3.00;98.00
947;DHT22;460;48.734;9.152;2022-12-18T15:41:47;-3.10;98.00
947;DHT22;460;48.734;9.152;2022-12-18T15:44:33;-3.10;98.30
947;DHT22;460;48.734;9.152;2022-12-18T15:47:00;-3.10;98.40
947;DHT22;460;48.734;9.152;2022-12-18T15:49:27;-3.20;98.40
947;DHT22;460;48.734;9.152;2022-12-18T15:51:56;-3.10;98.70
947;DHT22;460;48.734;9.152;2022-12-18T15:54:23;-3.20;98.50
947;DHT22;460;48.734;9.152;2022-12-18T15:57:04;-3.30;98.50
947;DHT22;460;48.734;9.152;2022-12-18T15:59:48;-3.30;98.70
947;DHT22;460;48.734;9.152;2022-12-18T16:02:17;-3.30;98.80
947;DHT22;460;48.734;9.152;2022-12-18T16:04:44;-3.30;98.70
947;DHT22;460;48.734;9.152;2022-12-18T16:07:12;-3.40;98.70
947;DHT22;460;48.734;9.152;2022-12-18T16:09:39;-3.50;98.80
947;DHT22;460;48.734;9.152;2022-12-18T16:12:06;-3.50;99.00
947;DHT22;460;48.734;9.152;2022-12-18T16:14:40;-3.50;99.00
947;DHT22;460;48.734;9.152;2022-12-18T16:17:11;-3.50;99.00
947;DHT22;460;48.734;9.152;2022-12-18T16:19:38;-3.50;99.90
947;DHT22;460;48.734;9.152;2022-12-18T16:22:05;-3.50;99.00
947;DHT22;460;48.734;9.152;2022-12-18T16:24:33;-3.50;98.90
947;DHT22;460;48.734;9.152;2022-12-18T16:27:05;-3.50;98.90
947;DHT22;460;48.734;9.152;2022-12-18T16:29:33;-3.50;99.10
947;DHT22;460;48.734;9.152;2022-12-18T16:32:00;-3.60;99.10
947;DHT22;460;48.734;9.152;2022-12-18T16:34:30;-3.50;99.20
947;DHT22;460;48.734;9.152;2022-12-18T16:36:59;-3.50;99.20
947;DHT22;460;48.734;9.152;2022-12-18T16:39:36;-3.50;99.10
947;DHT22;460;48.734;9.152;2022-12-18T16:42:06;-3.40;99.30
947;DHT22;460;48.734;9.152;2022-12-18T16:44:35;-3.40;99.40
947;DHT22;460;48.734;9.152;2022-12-18T16:47:02;-3.40;99.30
947;DHT22;460;48.734;9.152;2022-12-18T16:49:30;-3.40;99.20
947;DHT22;460;48.734;9.152;2022-12-18T16:51:58;-3.30;99.20
947;DHT22;460;48.734;9.152;2022-12-18T16:54:24;-3.40;99.20
947;DHT22;460;48.734;9.152;2022-12-18T16:56:54;-2.90;99.40
947;DHT22;460;48.734;9.152;2022-12-18T16:59:21;-3.30;99.20
947;DHT22;460;48.734;9.152;2022-12-18T17:01:48;-3.40;99.00